ENU weather

Akanu Ibiam International Airport
Enegu, Enugu, Nigeria

Public forecast

Using degrees Celsius for public forecast. Weather courtesy of forecast.io.

Current aviation weather report (METAR) for Akanu Ibiam International Airport

Report is more than 2 hours old.

Retrieved 2020/02/28 02:00 UTC (4 hours ago):

DNEN 280200Z 22004KT 1200 HZ NSC 27/22 Q1010

Aviation forecast (TAF) for Akanu Ibiam International Airport

Retrieved 2020-02-28 00:09 UTC (6 hours ago):

TAF TAF DNEN 272300Z 2800/2906 00000KT 1000 HZ NSC PROB30 TEMPO 2804/2808 0800 DU BECMG 2809/2811 30010KT